Time,TemperatureF,DewpointF,PressureIn,WindDirection,WindDirectionDegrees,WindSpeedMPH,WindSpeedGustMPH,Humidity,HourlyPrecipIn,Conditions,Clouds,dailyrainin,SolarRadiationWatts/m^2,SoftwareType,DateUTC
2013-09-13 00:02:00,68.7,68.0,29.74,WNW,284,0.0,7.0,97,0.03,,,0.07,0,weatherlink.com 1.10,2013-09-13 04:02:00,
2013-09-13 00:17:00,68.5,68.0,29.74,West,270,0.0,3.0,97,0.03,,,0.08,0,weatherlink.com 1.10,2013-09-13 04:17:00,
2013-09-13 00:32:00,68.5,68.0,29.73,West,267,1.0,3.0,97,0.02,,,0.08,0,weatherlink.com 1.10,2013-09-13 04:32:00,
2013-09-13 00:47:00,68.5,68.0,29.73,NW,323,0.0,2.0,97,0.02,,,0.09,0,weatherlink.com 1.10,2013-09-13 04:47:00,
2013-09-13 01:02:00,68.5,68.0,29.73,NW,319,1.0,2.0,98,0.02,,,0.09,0,weatherlink.com 1.10,2013-09-13 05:02:00,
2013-09-13 01:17:00,68.5,68.0,29.72,WSW,258,1.0,3.0,98,0.01,,,0.09,0,weatherlink.com 1.10,2013-09-13 05:17:00,
2013-09-13 01:32:00,68.5,68.0,29.71,WSW,248,0.0,3.0,98,0.02,,,0.10,0,weatherlink.com 1.10,2013-09-13 05:32:00,
2013-09-13 01:47:00,68.6,68.0,29.71,WSW,248,0.0,0.0,98,0.01,,,0.10,0,weatherlink.com 1.10,2013-09-13 05:47:00,
2013-09-13 02:02:00,68.5,68.0,29.70,WSW,248,0.0,2.0,98,0.02,,,0.11,0,weatherlink.com 1.10,2013-09-13 06:02:00,
2013-09-13 02:17:00,68.5,68.0,29.69,WSW,248,0.0,0.0,98,0.02,,,0.11,0,weatherlink.com 1.10,2013-09-13 06:17:00,
2013-09-13 02:32:00,68.5,68.0,29.68,WSW,248,0.0,0.0,98,0.01,,,0.11,0,weatherlink.com 1.10,2013-09-13 06:32:00,
2013-09-13 02:47:00,68.5,68.0,29.67,WSW,248,0.0,0.0,98,0.01,,,0.11,0,weatherlink.com 1.10,2013-09-13 06:47:00,
2013-09-13 03:02:00,68.3,68.0,29.67,WSW,248,0.0,0.0,98,0.01,,,0.12,0,weatherlink.com 1.10,2013-09-13 07:02:00,
2013-09-13 03:17:00,68.1,67.0,29.66,WSW,248,0.0,0.0,97,0.01,,,0.12,0,weatherlink.com 1.10,2013-09-13 07:17:00,
2013-09-13 03:32:00,68.0,68.0,29.66,WSW,248,0.0,0.0,98,0.02,,,0.13,0,weatherlink.com 1.10,2013-09-13 07:32:00,
2013-09-13 03:47:00,68.0,68.0,29.66,WSW,248,0.0,0.0,98,0.02,,,0.13,0,weatherlink.com 1.10,2013-09-13 07:47:00,
2013-09-13 04:02:00,67.8,67.0,29.66,WSW,248,0.0,0.0,98,0.01,,,0.13,0,weatherlink.com 1.10,2013-09-13 08:02:00,
2013-09-13 04:17:00,67.8,67.0,29.66,WSW,248,0.0,1.0,98,0.01,,,0.13,0,weatherlink.com 1.10,2013-09-13 08:17:00,
2013-09-13 04:32:00,67.6,67.0,29.66,WSW,248,0.0,0.0,98,0.00,,,0.13,0,weatherlink.com 1.10,2013-09-13 08:32:00,
2013-09-13 04:47:00,67.4,67.0,29.65,WSW,248,0.0,0.0,98,0.01,,,0.14,0,weatherlink.com 1.10,2013-09-13 08:47:00,
2013-09-13 05:02:00,67.3,67.0,29.66,WSW,248,0.0,0.0,98,0.01,,,0.14,0,weatherlink.com 1.10,2013-09-13 09:02:00,
2013-09-13 05:17:00,67.3,67.0,29.66,WSW,248,0.0,0.0,98,0.01,,,0.14,0,weatherlink.com 1.10,2013-09-13 09:17:00,
2013-09-13 05:32:00,67.3,67.0,29.66,WSW,248,0.0,0.0,98,0.01,,,0.14,0,weatherlink.com 1.10,2013-09-13 09:32:00,
2013-09-13 05:47:00,67.3,67.0,29.67,WSW,248,0.0,0.0,98,0.01,,,0.15,0,weatherlink.com 1.10,2013-09-13 09:47:00,
2013-09-13 06:02:00,67.4,67.0,29.67,WSW,248,0.0,0.0,98,0.01,,,0.15,0,weatherlink.com 1.10,2013-09-13 10:02:00,
2013-09-13 06:17:00,67.4,67.0,29.67,WSW,248,0.0,0.0,98,0.01,,,0.15,0,weatherlink.com 1.10,2013-09-13 10:17:00,
2013-09-13 06:32:00,67.4,67.0,29.67,WSW,248,0.0,0.0,98,0.01,,,0.15,0,weatherlink.com 1.10,2013-09-13 10:32:00,
2013-09-13 06:47:00,67.4,67.0,29.67,WSW,248,0.0,0.0,98,0.00,,,0.15,0,weatherlink.com 1.10,2013-09-13 10:47:00,
2013-09-13 07:02:00,67.4,67.0,29.67,WSW,248,0.0,0.0,98,0.00,,,0.15,5,weatherlink.com 1.10,2013-09-13 11:02:00,
2013-09-13 07:17:00,67.5,67.0,29.68,SW,225,1.0,3.0,98,0.00,,,0.15,7,weatherlink.com 1.10,2013-09-13 11:17:00,
2013-09-13 07:32:00,67.5,67.0,29.68,SW,225,0.0,0.0,98,0.01,,,0.16,18,weatherlink.com 1.10,2013-09-13 11:32:00,
2013-09-13 07:47:00,67.7,67.0,29.68,SW,225,0.0,1.0,98,0.01,,,0.16,37,weatherlink.com 1.10,2013-09-13 11:47:00,
2013-09-13 08:02:00,68.0,68.0,29.68,SW,225,0.0,1.0,99,0.01,,,0.16,39,weatherlink.com 1.10,2013-09-13 12:02:00,
2013-09-13 08:17:00,67.9,67.0,29.68,SW,225,0.0,1.0,98,0.01,,,0.16,58,weatherlink.com 1.10,2013-09-13 12:17:00,
2013-09-13 08:32:00,68.5,68.0,29.68,SW,225,0.0,1.0,98,0.00,,,0.16,77,weatherlink.com 1.10,2013-09-13 12:32:00,
2013-09-13 08:47:00,69.4,69.0,29.68,NNW,331,0.0,1.0,99,0.00,,,0.16,93,weatherlink.com 1.10,2013-09-13 12:47:00,
2013-09-13 09:02:00,69.3,69.0,29.68,NNW,340,0.0,1.0,98,0.01,,,0.17,84,weatherlink.com 1.10,2013-09-13 13:02:00,
2013-09-13 09:17:00,69.2,69.0,29.68,NNW,340,0.0,1.0,98,0.01,,,0.17,216,weatherlink.com 1.10,2013-09-13 13:17:00,
2013-09-13 09:32:00,69.5,69.0,29.68,SW,221,0.0,2.0,97,0.01,,,0.17,132,weatherlink.com 1.10,2013-09-13 13:32:00,
2013-09-13 09:47:00,70.6,70.0,29.68,South,190,0.0,2.0,97,0.01,,,0.17,171,weatherlink.com 1.10,2013-09-13 13:47:00,
2013-09-13 10:02:00,71.6,70.0,29.68,South,186,0.0,2.0,96,0.00,,,0.17,587,weatherlink.com 1.10,2013-09-13 14:02:00,
2013-09-13 10:18:00,74.4,70.0,29.68,SSW,203,0.0,3.0,87,0.00,,,0.17,162,weatherlink.com 1.10,2013-09-13 14:18:00,
2013-09-13 10:33:00,73.5,71.0,29.68,South,169,0.0,2.0,90,0.01,,,0.18,153,weatherlink.com 1.10,2013-09-13 14:33:00,
2013-09-13 10:48:00,75.1,70.0,29.68,West,280,0.0,3.0,83,0.01,,,0.18,722,weatherlink.com 1.10,2013-09-13 14:48:00,
2013-09-13 11:03:00,77.2,72.0,29.68,WSW,250,0.0,4.0,83,0.02,,,0.19,844,weatherlink.com 1.10,2013-09-13 15:03:00,
2013-09-13 11:18:00,75.0,69.0,29.67,SSE,155,0.0,3.0,81,0.03,,,0.20,127,weatherlink.com 1.10,2013-09-13 15:18:00,
2013-09-13 11:33:00,76.8,71.0,29.67,South,177,0.0,3.0,82,0.03,,,0.21,803,weatherlink.com 1.10,2013-09-13 15:33:00,
2013-09-13 11:48:00,78.4,70.0,29.66,SE,134,0.0,4.0,76,0.04,,,0.22,826,weatherlink.com 1.10,2013-09-13 15:48:00,
2013-09-13 12:03:00,80.7,74.0,29.66,West,267,0.0,2.0,79,0.04,,,0.23,861,weatherlink.com 1.10,2013-09-13 16:03:00,
2013-09-13 12:18:00,81.4,69.0,29.66,SW,230,3.0,7.0,66,0.05,,,0.25,923,weatherlink.com 1.10,2013-09-13 16:18:00,
2013-09-13 12:33:00,80.0,69.0,29.67,WSW,248,0.0,4.0,69,0.05,,,0.26,976,weatherlink.com 1.10,2013-09-13 16:33:00,
2013-09-13 12:48:00,81.5,69.0,29.66,ENE,78,2.0,3.0,66,0.05,,,0.27,911,weatherlink.com 1.10,2013-09-13 16:48:00,
2013-09-13 13:03:00,82.1,71.0,29.66,SE,142,1.0,4.0,69,0.04,,,0.27,949,weatherlink.com 1.10,2013-09-13 17:03:00,
2013-09-13 13:18:00,82.9,69.0,29.65,SSE,159,1.0,5.0,63,0.02,,,0.27,911,weatherlink.com 1.10,2013-09-13 17:18:00,
2013-09-13 13:33:00,82.8,69.0,29.65,North,5,0.0,2.0,63,0.01,,,0.27,241,weatherlink.com 1.10,2013-09-13 17:33:00,
2013-09-13 13:48:00,79.8,67.0,29.65,WSW,254,0.0,5.0,64,0.00,,,0.27,69,weatherlink.com 1.10,2013-09-13 17:48:00,
2013-09-13 14:03:00,75.6,67.0,29.66,SW,223,1.0,7.0,75,0.01,,,0.28,58,weatherlink.com 1.10,2013-09-13 18:03:00,
2013-09-13 14:18:00,72.2,68.0,29.66,West,281,0.0,3.0,86,0.02,,,0.29,107,weatherlink.com 1.10,2013-09-13 18:18:00,
2013-09-13 14:33:00,73.3,70.0,29.66,WSW,247,2.0,4.0,89,0.02,,,0.29,819,weatherlink.com 1.10,2013-09-13 18:33:00,
2013-09-13 14:48:00,76.0,70.0,29.65,West,264,3.0,6.0,81,0.03,,,0.30,803,weatherlink.com 1.10,2013-09-13 18:48:00,
2013-09-13 15:03:00,76.8,70.0,29.66,West,266,0.0,6.0,80,0.02,,,0.30,178,weatherlink.com 1.10,2013-09-13 19:03:00,
2013-09-13 15:18:00,75.1,69.0,29.66,West,274,0.0,3.0,81,0.01,,,0.30,81,weatherlink.com 1.10,2013-09-13 19:18:00,
2013-09-13 15:33:00,73.9,69.0,29.66,West,266,0.0,3.0,84,0.01,,,0.30,114,weatherlink.com 1.10,2013-09-13 19:33:00,
2013-09-13 15:48:00,73.7,70.0,29.66,West,261,1.0,5.0,87,0.00,,,0.30,515,weatherlink.com 1.10,2013-09-13 19:48:00,
2013-09-13 16:03:00,75.8,70.0,29.66,WSW,250,0.0,4.0,81,0.00,,,0.30,577,weatherlink.com 1.10,2013-09-13 20:03:00,
2013-09-13 16:18:00,77.8,70.0,29.66,West,262,2.0,4.0,76,0.00,,,0.30,504,weatherlink.com 1.10,2013-09-13 20:18:00,
2013-09-13 16:33:00,78.7,69.0,29.66,SSE,148,1.0,3.0,71,0.00,,,0.30,462,weatherlink.com 1.10,2013-09-13 20:33:00,
2013-09-13 16:48:00,77.9,68.0,29.66,West,259,1.0,4.0,71,0.00,,,0.30,452,weatherlink.com 1.10,2013-09-13 20:48:00,
2013-09-13 17:04:00,76.3,65.0,29.67,WNW,292,0.0,5.0,68,0.00,,,0.30,171,weatherlink.com 1.10,2013-09-13 21:04:00,
2013-09-13 17:18:00,75.5,65.0,29.67,SW,233,2.0,4.0,69,0.00,,,0.30,53,weatherlink.com 1.10,2013-09-13 21:18:00,
2013-09-13 17:33:00,74.3,64.0,29.67,ESE,103,1.0,2.0,71,0.00,,,0.30,60,weatherlink.com 1.10,2013-09-13 21:33:00,
2013-09-13 17:48:00,72.9,64.0,29.68,SW,215,0.0,2.0,74,0.00,,,0.30,44,weatherlink.com 1.10,2013-09-13 21:48:00,
2013-09-13 18:03:00,71.7,65.0,29.69,SSW,206,0.0,3.0,78,0.00,,,0.30,19,weatherlink.com 1.10,2013-09-13 22:03:00,
2013-09-13 18:18:00,70.4,64.0,29.70,ESE,105,0.0,5.0,79,0.00,,,0.30,7,weatherlink.com 1.10,2013-09-13 22:18:00,
2013-09-13 18:33:00,68.9,62.0,29.71,ENE,70,0.0,3.0,79,0.00,,,0.30,5,weatherlink.com 1.10,2013-09-13 22:33:00,
2013-09-13 18:48:00,67.5,62.0,29.72,ESE,107,0.0,3.0,81,0.00,,,0.30,0,weatherlink.com 1.10,2013-09-13 22:48:00,
2013-09-13 19:03:00,66.7,61.0,29.72,SE,142,0.0,2.0,83,0.00,,,0.30,0,weatherlink.com 1.10,2013-09-13 23:03:00,
2013-09-13 19:18:00,66.1,61.0,29.74,ENE,62,0.0,3.0,84,0.00,,,0.30,0,weatherlink.com 1.10,2013-09-13 23:18:00,
2013-09-13 19:33:00,65.9,62.0,29.75,SSE,151,0.0,2.0,86,0.00,,,0.30,0,weatherlink.com 1.10,2013-09-13 23:33:00,
2013-09-13 19:48:00,65.8,62.0,29.76,East,98,0.0,2.0,86,0.00,,,0.30,0,weatherlink.com 1.10,2013-09-13 23:48:00,
2013-09-13 20:03:00,65.8,62.0,29.77,SE,126,0.0,2.0,88,0.00,,,0.30,0,weatherlink.com 1.10,2013-09-14 00:03:00,
2013-09-13 20:18:00,65.6,61.0,29.77,ESE,110,0.0,5.0,86,0.00,,,0.30,0,weatherlink.com 1.10,2013-09-14 00:18:00,
2013-09-13 20:33:00,65.3,61.0,29.77,South,188,0.0,3.0,85,0.00,,,0.30,0,weatherlink.com 1.10,2013-09-14 00:33:00,
2013-09-13 20:48:00,65.0,60.0,29.78,NE,38,0.0,3.0,84,0.00,,,0.30,0,weatherlink.com 1.10,2013-09-14 00:48:00,
2013-09-13 21:03:00,64.9,60.0,29.78,NE,47,0.0,1.0,84,0.00,,,0.00,0,weatherlink.com 1.10,2013-09-14 01:03:00,
2013-09-13 21:18:00,64.7,60.0,29.79,East,83,0.0,1.0,85,0.00,,,0.00,0,weatherlink.com 1.10,2013-09-14 01:18:00,
2013-09-13 21:34:00,64.2,60.0,29.79,ESE,123,0.0,3.0,85,0.00,,,0.00,0,weatherlink.com 1.10,2013-09-14 01:34:00,
2013-09-13 21:49:00,63.5,59.0,29.79,East,90,0.0,2.0,85,0.00,,,0.00,0,weatherlink.com 1.10,2013-09-14 01:49:00,
2013-09-13 22:04:00,62.8,59.0,29.79,ENE,58,0.0,2.0,86,0.00,,,0.00,0,weatherlink.com 1.10,2013-09-14 02:04:00,
2013-09-13 22:19:00,62.0,58.0,29.80,WNW,294,0.0,2.0,86,0.00,,,0.00,0,weatherlink.com 1.10,2013-09-14 02:19:00,
2013-09-13 22:34:00,61.3,57.0,29.81,NW,325,1.0,3.0,87,0.00,,,0.00,0,weatherlink.com 1.10,2013-09-14 02:34:00,
2013-09-13 22:49:00,60.7,57.0,29.81,SSE,160,5.0,6.0,86,0.00,,,0.00,0,weatherlink.com 1.10,2013-09-14 02:49:00,
2013-09-13 23:04:00,60.4,57.0,29.82,West,271,0.0,2.0,87,0.00,,,0.00,0,weatherlink.com 1.10,2013-09-14 03:04:00,
2013-09-13 23:19:00,60.2,57.0,29.82,NNW,330,0.0,3.0,88,0.00,,,0.00,0,weatherlink.com 1.10,2013-09-14 03:19:00,
2013-09-13 23:34:00,59.8,56.0,29.82,SE,129,0.0,3.0,88,0.00,,,0.00,0,weatherlink.com 1.10,2013-09-14 03:34:00,
2013-09-13 23:49:00,59.7,56.0,29.82,North,355,0.0,4.0,88,0.00,,,0.00,0,weatherlink.com 1.10,2013-09-14 03:49:00,